Time;durP1;ratioP1;P1;durP2;ratioP2;P2;SDS_P1;SDS_P2;PMS_P1;PMS_P2;Temp;Humidity;BMP_temperature;BMP_pressure;BME280_temperature;BME280_humidity;BME280_pressure;Samples;Min_cycle;Max_cycle;Signal;HPM_P1;HPM_P2
2022/12/07 00:00:09;;;;;;;3.40;2.20;;;17.30;47.10;;;;;;5017167;28;20204;-69
2022/12/07 00:02:37;;;;;;;2.80;2.28;;;17.20;47.10;;;;;;5017734;28;20185;-69
2022/12/07 00:05:05;;;;;;;2.70;2.50;;;17.20;47.20;;;;;;5016836;28;20640;-69
2022/12/07 00:07:32;;;;;;;2.55;2.35;;;17.20;47.20;;;;;;5015817;28;20220;-68
2022/12/07 00:09:59;;;;;;;2.60;2.40;;;17.20;47.10;;;;;;5015289;28;20700;-68
2022/12/07 00:12:26;;;;;;;2.75;2.55;;;17.10;47.20;;;;;;5016412;28;20200;-69
2022/12/07 00:14:54;;;;;;;2.70;2.50;;;17.10;47.30;;;;;;5015813;28;20295;-69
2022/12/07 00:17:21;;;;;;;2.63;2.42;;;17.10;47.30;;;;;;5016444;28;20249;-69
2022/12/07 00:19:49;;;;;;;2.65;2.45;;;17.10;47.30;;;;;;5015066;28;20621;-68
2022/12/07 00:22:17;;;;;;;2.63;2.42;;;17.10;47.40;;;;;;5016715;28;20193;-68
2022/12/07 00:24:44;;;;;;;2.65;2.42;;;17.10;47.40;;;;;;5014803;28;20200;-68
2022/12/07 00:27:11;;;;;;;2.60;2.40;;;17.10;47.40;;;;;;5014974;28;20255;-69
2022/12/07 00:29:38;;;;;;;2.88;2.60;;;17.00;47.40;;;;;;5015176;28;20252;-69
2022/12/07 00:32:05;;;;;;;2.80;2.42;;;17.00;47.40;;;;;;5014715;28;20196;-68
2022/12/07 00:34:32;;;;;;;2.97;2.63;;;17.00;47.50;;;;;;5016216;28;20200;-68
2022/12/07 00:37:01;;;;;;;2.47;2.28;;;17.00;47.60;;;;;;5014946;28;20212;-68
2022/12/07 00:39:27;;;;;;;2.83;2.63;;;17.00;47.50;;;;;;5014729;28;20221;-68
2022/12/07 00:41:55;;;;;;;4.00;2.53;;;17.00;47.50;;;;;;5014555;28;20252;-68
2022/12/07 00:44:22;;;;;;;2.80;2.60;;;17.00;47.50;;;;;;5014694;28;20252;-68
2022/12/07 00:46:49;;;;;;;3.00;2.70;;;16.90;47.50;;;;;;5016251;28;20251;-68
2022/12/07 00:49:16;;;;;;;2.60;2.40;;;16.90;47.50;;;;;;5014835;28;20221;-68
2022/12/07 00:51:43;;;;;;;2.75;2.55;;;16.90;47.50;;;;;;5016131;28;20201;-68
2022/12/07 00:54:12;;;;;;;2.70;2.50;;;16.90;47.60;;;;;;4999001;28;20201;-68
2022/12/07 00:56:38;;;;;;;2.70;2.50;;;16.90;47.70;;;;;;5015031;28;20209;-68
2022/12/07 00:59:06;;;;;;;2.67;2.47;;;16.90;47.60;;;;;;5015861;28;20220;-69
2022/12/07 01:01:33;;;;;;;2.90;2.70;;;16.80;47.60;;;;;;5015674;28;20193;-68
2022/12/07 01:04:01;;;;;;;3.00;2.70;;;16.80;47.60;;;;;;5015323;28;20236;-68
2022/12/07 01:06:28;;;;;;;2.67;2.47;;;16.80;47.70;;;;;;5014230;28;20231;-68
2022/12/07 01:08:55;;;;;;;3.00;2.70;;;16.80;47.70;;;;;;5014057;28;20255;-68
2022/12/07 01:11:25;;;;;;;2.90;2.70;;;16.80;47.60;;;;;;5014020;28;20664;-68
2022/12/07 01:13:52;;;;;;;2.85;2.65;;;16.80;47.70;;;;;;5013898;28;20285;-68
2022/12/07 01:16:20;;;;;;;2.65;2.45;;;16.70;47.60;;;;;;5014005;28;20231;-69
2022/12/07 01:18:47;;;;;;;2.78;2.58;;;16.70;47.60;;;;;;5014580;28;20225;-68
2022/12/07 01:21:15;;;;;;;2.70;2.50;;;16.70;47.60;;;;;;5015212;28;20644;-68
2022/12/07 01:23:43;;;;;;;3.00;2.80;;;16.70;47.60;;;;;;5015767;28;20545;-69
2022/12/07 01:26:11;;;;;;;2.92;2.72;;;16.70;47.60;;;;;;5016688;28;20193;-68
2022/12/07 01:28:40;;;;;;;3.00;2.80;;;16.70;47.60;;;;;;5015498;28;20209;-68
2022/12/07 01:31:10;;;;;;;3.00;2.80;;;16.70;47.60;;;;;;5014335;28;20640;-69
2022/12/07 01:33:38;;;;;;;2.90;2.63;;;16.60;47.60;;;;;;5013538;28;20287;-68
2022/12/07 01:36:07;;;;;;;3.00;2.70;;;16.60;47.60;;;;;;5013504;28;20235;-68
2022/12/07 01:38:35;;;;;;;3.47;2.58;;;16.60;47.60;;;;;;5013549;28;20256;-68
2022/12/07 01:41:02;;;;;;;2.80;2.60;;;16.60;47.70;;;;;;5015027;28;20568;-68
2022/12/07 01:43:30;;;;;;;2.80;2.60;;;16.60;47.70;;;;;;5013391;28;20284;-68
2022/12/07 01:45:59;;;;;;;3.40;3.10;;;16.60;47.70;;;;;;5013233;28;20203;-68
2022/12/07 01:48:28;;;;;;;2.90;2.70;;;16.60;47.80;;;;;;5013452;28;20212;-68
2022/12/07 01:50:55;;;;;;;2.95;2.65;;;16.60;47.80;;;;;;5014077;28;20272;-68
2022/12/07 01:53:23;;;;;;;2.97;2.78;;;16.60;47.90;;;;;;5014668;28;20722;-68
2022/12/07 01:55:51;;;;;;;2.95;2.70;;;16.50;47.80;;;;;;5013545;28;20319;-68
2022/12/07 01:58:18;;;;;;;3.13;2.83;;;16.50;47.80;;;;;;5013916;28;20201;-68
2022/12/07 02:00:46;;;;;;;3.13;2.83;;;16.50;47.80;;;;;;5013478;28;20200;-68
2022/12/07 02:03:17;;;;;;;3.00;2.75;;;16.50;47.80;;;;;;5014628;28;20247;-68
2022/12/07 02:05:44;;;;;;;4.28;2.97;;;16.50;47.80;;;;;;5013219;28;20199;-68
2022/12/07 02:08:12;;;;;;;3.28;2.97;;;16.50;47.80;;;;;;5012794;28;20224;-68
2022/12/07 02:10:39;;;;;;;2.83;2.30;;;16.50;47.80;;;;;;5012835;28;20201;-68
2022/12/07 02:13:09;;;;;;;3.35;3.05;;;16.50;47.90;;;;;;5013192;28;20648;-68
2022/12/07 02:15:50;;;;;;;2.92;2.70;;;16.50;47.90;;;;;;5014087;28;20193;-68
2022/12/07 02:18:21;;;;;;;3.22;2.80;;;16.40;47.90;;;;;;5013895;28;20183;-68
2022/12/07 02:20:52;;;;;;;3.03;2.72;;;16.40;47.90;;;;;;5013280;28;20201;-68
2022/12/07 02:23:46;;;;;;;2.80;2.60;;;16.40;48.00;;;;;;5012841;28;20213;-68
2022/12/07 02:27:13;;;;;;;3.30;3.00;;;16.40;48.00;;;;;;5012602;28;20196;-68
2022/12/07 02:29:44;;;;;;;2.90;2.70;;;16.40;48.10;;;;;;4937550;29;20250;-68
2022/12/07 02:32:14;;;;;;;2.90;2.53;;;16.30;48.10;;;;;;5012298;28;20200;-68
2022/12/07 02:34:45;;;;;;;3.28;2.90;;;16.30;48.10;;;;;;4996693;28;20216;-68
2022/12/07 02:37:18;;;;;;;2.78;2.58;;;16.30;48.10;;;;;;5012401;28;20586;-68
2022/12/07 02:39:47;;;;;;;2.85;2.65;;;16.40;48.20;;;;;;5012327;28;20742;-68
2022/12/07 02:42:16;;;;;;;2.70;2.50;;;16.30;48.10;;;;;;5012570;28;20247;-68
2022/12/07 02:44:45;;;;;;;2.92;2.72;;;16.30;48.10;;;;;;5012381;28;20200;-68
2022/12/07 02:47:13;;;;;;;2.95;2.75;;;16.30;48.20;;;;;;5012616;28;20581;-68
2022/12/07 02:49:40;;;;;;;3.00;2.80;;;16.30;48.20;;;;;;5012521;28;20597;-68
2022/12/07 02:52:08;;;;;;;2.80;2.60;;;16.30;48.20;;;;;;5012906;28;20224;-68
2022/12/07 02:54:34;;;;;;;2.80;2.60;;;16.30;48.20;;;;;;5012777;28;20193;-68
2022/12/07 02:57:08;;;;;;;2.70;2.50;;;16.30;48.30;;;;;;5012320;28;20252;-68
2022/12/07 02:59:40;;;;;;;2.80;2.60;;;16.30;48.30;;;;;;5012396;28;20226;-68
2022/12/07 03:02:14;;;;;;;3.08;2.72;;;16.30;48.30;;;;;;5012368;28;20196;-68
2022/12/07 03:04:45;;;;;;;2.72;2.53;;;16.30;48.30;;;;;;5012210;28;20602;-68
2022/12/07 03:07:15;;;;;;;2.88;2.67;;;16.30;48.30;;;;;;5012508;28;20739;-68
2022/12/07 03:09:45;;;;;;;2.67;2.47;;;16.20;48.20;;;;;;5013578;28;20211;-69
2022/12/07 03:12:15;;;;;;;2.63;2.42;;;16.30;48.40;;;;;;5012444;28;20648;-69
2022/12/07 03:14:43;;;;;;;3.03;2.72;;;16.20;48.20;;;;;;5012308;28;20205;-69
2022/12/07 03:17:13;;;;;;;2.63;2.42;;;16.20;48.30;;;;;;5012163;28;20220;-69
2022/12/07 03:19:40;;;;;;;2.67;2.47;;;16.20;48.30;;;;;;5014231;28;20302;-69
2022/12/07 03:22:09;;;;;;;3.00;2.70;;;16.20;48.40;;;;;;5016451;28;20288;-69
2022/12/07 03:24:39;;;;;;;2.70;2.50;;;16.20;48.40;;;;;;5016185;28;20203;-69
2022/12/07 03:27:08;;;;;;;2.80;2.60;;;16.20;48.40;;;;;;5016410;28;20571;-69
2022/12/07 03:29:37;;;;;;;2.70;2.50;;;16.20;48.40;;;;;;5016707;28;20216;-69
2022/12/07 03:32:07;;;;;;;2.90;2.70;;;16.20;48.40;;;;;;5017260;28;20205;-69
2022/12/07 03:34:37;;;;;;;2.95;2.75;;;16.20;48.40;;;;;;5017648;28;20199;-69
2022/12/07 03:37:05;;;;;;;2.70;2.50;;;16.20;48.40;;;;;;5018949;28;20280;-69
2022/12/07 03:39:35;;;;;;;3.35;2.60;;;16.20;48.50;;;;;;5017266;28;20676;-68
2022/12/07 03:42:02;;;;;;;3.20;2.47;;;16.10;48.40;;;;;;5016284;28;20209;-69
2022/12/07 03:44:29;;;;;;;2.60;2.40;;;16.10;48.40;;;;;;5026648;28;20725;-69
2022/12/07 03:47:00;;;;;;;2.88;2.65;;;16.10;48.50;;;;;;5035548;28;20242;-69
2022/12/07 03:49:29;;;;;;;2.80;2.60;;;16.10;48.50;;;;;;5035441;28;20220;-69
2022/12/07 03:52:01;;;;;;;2.50;2.30;;;16.10;48.60;;;;;;5035667;28;20206;-69
2022/12/07 03:54:31;;;;;;;2.95;2.75;;;16.10;48.60;;;;;;5035607;28;20698;-69
2022/12/07 03:56:58;;;;;;;2.80;2.38;;;16.00;48.50;;;;;;5035430;28;20216;-69
2022/12/07 03:59:25;;;;;;;4.03;2.90;;;16.10;48.60;;;;;;5035280;28;20224;-69
2022/12/07 04:01:53;;;;;;;2.80;2.47;;;16.00;48.50;;;;;;5035361;28;20647;-69
2022/12/07 04:04:20;;;;;;;2.60;2.40;;;16.10;48.50;;;;;;5035631;28;20196;-69
2022/12/07 04:06:47;;;;;;;2.78;2.58;;;16.10;48.60;;;;;;5035732;28;20188;-69
2022/12/07 04:09:16;;;;;;;2.92;2.63;;;16.00;48.40;;;;;;5036115;28;20227;-69
2022/12/07 04:11:43;;;;;;;2.47;2.28;;;16.00;48.40;;;;;;5035664;28;20200;-70
2022/12/07 04:14:19;;;;;;;2.45;2.30;;;16.00;48.50;;;;;;5036377;28;20196;-69
2022/12/07 04:16:46;;;;;;;2.50;2.30;;;16.00;48.50;;;;;;5035495;28;20211;-69
2022/12/07 04:19:13;;;;;;;2.95;2.75;;;16.10;48.80;;;;;;5035325;28;20266;-69
2022/12/07 04:21:40;;;;;;;2.47;2.28;;;16.00;48.80;;;;;;5035490;28;20192;-69
2022/12/07 04:24:08;;;;;;;2.60;2.40;;;16.00;48.70;;;;;;5035116;28;20246;-69
2022/12/07 04:26:36;;;;;;;2.20;2.10;;;16.10;48.90;;;;;;5035097;28;20200;-69
2022/12/07 04:29:04;;;;;;;2.70;2.50;;;16.10;48.90;;;;;;5015306;28;20684;-69
2022/12/07 04:31:31;;;;;;;2.85;2.65;;;16.10;48.80;;;;;;5013949;28;20208;-69
2022/12/07 04:33:58;;;;;;;2.60;2.40;;;16.10;48.70;;;;;;5014923;28;20205;-69
2022/12/07 04:36:26;;;;;;;2.70;2.50;;;16.20;48.70;;;;;;5015052;28;20255;-69
2022/12/07 04:38:54;;;;;;;2.42;2.22;;;16.20;48.70;;;;;;5015868;28;20270;-69
2022/12/07 04:41:26;;;;;;;3.05;2.50;;;16.20;48.50;;;;;;5014586;28;20196;-69
2022/12/07 04:43:56;;;;;;;2.60;2.40;;;16.30;48.60;;;;;;5014582;28;20222;-69
2022/12/07 04:46:23;;;;;;;2.67;2.47;;;16.30;49.10;;;;;;5015792;28;20232;-69
2022/12/07 04:48:50;;;;;;;2.50;2.30;;;16.30;48.40;;;;;;5014307;28;20235;-69
2022/12/07 04:51:20;;;;;;;2.50;2.30;;;16.30;48.30;;;;;;5015381;28;20185;-69
2022/12/07 04:53:47;;;;;;;2.53;2.33;;;16.30;48.20;;;;;;5014250;28;20197;-69
2022/12/07 04:56:14;;;;;;;2.60;2.40;;;16.30;48.20;;;;;;5014337;28;20197;-69
2022/12/07 04:58:41;;;;;;;3.78;2.60;;;16.30;48.10;;;;;;5014193;28;20224;-69
2022/12/07 05:01:10;;;;;;;2.78;2.58;;;16.30;48.20;;;;;;5014713;28;20204;-69
2022/12/07 05:03:37;;;;;;;2.45;2.25;;;16.30;48.10;;;;;;5014186;28;20567;-69
2022/12/07 05:06:04;;;;;;;2.70;2.50;;;16.30;48.00;;;;;;5014148;28;20627;-69
2022/12/07 05:08:31;;;;;;;2.60;2.40;;;16.30;48.00;;;;;;5014040;28;20231;-69
2022/12/07 05:10:58;;;;;;;2.58;2.38;;;16.30;48.00;;;;;;5013972;28;20296;-69
2022/12/07 05:13:25;;;;;;;2.38;2.17;;;16.30;48.00;;;;;;5014025;28;20568;-69
2022/12/07 05:15:53;;;;;;;2.70;2.50;;;16.30;47.70;;;;;;5013743;28;20200;-69
2022/12/07 05:18:21;;;;;;;2.63;2.42;;;16.30;47.60;;;;;;5013757;28;20212;-69
2022/12/07 05:20:49;;;;;;;2.40;2.20;;;16.30;47.60;;;;;;5013222;28;20555;-69
2022/12/07 05:23:16;;;;;;;2.78;2.58;;;16.30;47.60;;;;;;5014361;28;20730;-69
2022/12/07 05:25:43;;;;;;;2.63;2.42;;;16.40;47.70;;;;;;5013630;28;20648;-69
2022/12/07 05:28:10;;;;;;;2.50;2.30;;;16.30;47.50;;;;;;5015198;28;20191;-69
2022/12/07 05:30:38;;;;;;;2.88;2.65;;;16.40;47.60;;;;;;5014235;28;20193;-69
2022/12/07 05:33:05;;;;;;;2.60;2.40;;;16.40;47.60;;;;;;5013664;28;20201;-69
2022/12/07 05:35:33;;;;;;;2.70;2.50;;;16.40;47.50;;;;;;5014379;28;20589;-70
2022/12/07 05:38:01;;;;;;;2.60;2.40;;;16.40;47.50;;;;;;5013574;28;20556;-69
2022/12/07 05:40:27;;;;;;;2.50;2.30;;;16.40;47.50;;;;;;5013503;28;20228;-69
2022/12/07 05:42:55;;;;;;;2.85;2.60;;;16.40;47.50;;;;;;5013525;28;20200;-69
2022/12/07 05:45:22;;;;;;;2.42;2.22;;;16.40;47.40;;;;;;5013367;28;20201;-69
2022/12/07 05:47:48;;;;;;;2.53;2.33;;;16.40;47.40;;;;;;5013624;28;20608;-69
2022/12/07 05:50:16;;;;;;;2.55;2.35;;;16.40;47.40;;;;;;5013185;28;20271;-69
2022/12/07 05:52:45;;;;;;;2.58;2.38;;;16.50;47.50;;;;;;5014008;28;20299;-69
2022/12/07 05:55:13;;;;;;;2.63;2.42;;;16.50;47.50;;;;;;5014569;28;20193;-69
2022/12/07 05:59:22;;;;;;;2.22;2.13;;;16.50;47.50;;;;;;5013538;28;20217;-69
2022/12/07 06:00:27;;;;;;;2.42;2.22;;;16.50;47.40;;;;;;5013629;28;20290;-68
2022/12/07 06:02:54;;;;;;;2.38;2.17;;;16.50;47.40;;;;;;5013516;28;20650;-68
2022/12/07 06:05:21;;;;;;;2.60;2.40;;;16.50;47.50;;;;;;5013277;28;20211;-68
2022/12/07 06:07:49;;;;;;;2.47;2.28;;;16.50;47.50;;;;;;5013201;28;20196;-68
2022/12/07 06:10:17;;;;;;;2.78;2.58;;;16.50;47.50;;;;;;5011605;28;20225;-68
2022/12/07 06:12:46;;;;;;;2.78;2.30;;;16.50;47.50;;;;;;4997783;28;20268;-68
2022/12/07 06:15:13;;;;;;;2.67;2.17;;;16.50;47.50;;;;;;4993798;28;20220;-68
2022/12/07 06:17:41;;;;;;;2.20;2.10;;;16.50;47.40;;;;;;4994080;28;20743;-68
2022/12/07 06:20:09;;;;;;;2.42;2.20;;;16.50;47.40;;;;;;4996312;28;20205;-68
2022/12/07 06:22:36;;;;;;;2.42;2.22;;;16.50;47.40;;;;;;4995321;28;20534;-68
2022/12/07 06:25:04;;;;;;;2.75;2.10;;;16.50;47.50;;;;;;4994194;28;20213;-68
2022/12/07 06:27:32;;;;;;;2.40;2.20;;;16.50;47.50;;;;;;4993648;28;20197;-68
2022/12/07 06:29:59;;;;;;;2.58;2.38;;;16.50;47.40;;;;;;4995088;28;20303;-68
2022/12/07 06:32:27;;;;;;;2.50;2.30;;;16.50;47.50;;;;;;5009816;28;20216;-68
2022/12/07 06:34:54;;;;;;;2.33;2.15;;;16.50;47.30;;;;;;5010352;28;20242;-68
2022/12/07 06:37:21;;;;;;;2.63;2.42;;;16.50;47.40;;;;;;5005772;28;20218;-68
2022/12/07 06:39:48;;;;;;;2.53;2.33;;;16.50;47.30;;;;;;5010428;28;20224;-68
2022/12/07 06:42:16;;;;;;;2.58;2.38;;;16.50;47.30;;;;;;5012942;28;20609;-68
2022/12/07 06:44:44;;;;;;;3.30;2.50;;;16.50;47.30;;;;;;5014010;28;20207;-68
2022/12/07 06:47:11;;;;;;;2.75;2.53;;;16.60;47.40;;;;;;5012693;28;20209;-68
2022/12/07 06:49:38;;;;;;;2.50;2.30;;;16.60;47.30;;;;;;5012978;28;20297;-68
2022/12/07 06:52:05;;;;;;;2.45;2.25;;;16.60;47.30;;;;;;5013612;28;20680;-68
2022/12/07 06:54:33;;;;;;;2.70;2.50;;;16.60;47.30;;;;;;5014398;28;20270;-68
2022/12/07 06:57:00;;;;;;;2.67;2.47;;;16.60;47.30;;;;;;5019467;28;20212;-68
2022/12/07 06:59:29;;;;;;;2.40;2.20;;;16.70;47.40;;;;;;5017438;28;20303;-68
2022/12/07 07:01:55;;;;;;;2.45;2.22;;;16.70;47.10;;;;;;5017035;28;20204;-68
2022/12/07 07:04:23;;;;;;;2.50;2.30;;;16.70;47.10;;;;;;5016835;28;20204;-68
2022/12/07 07:06:50;;;;;;;3.40;2.55;;;16.70;47.00;;;;;;5016675;28;20207;-68
2022/12/07 07:09:17;;;;;;;2.15;2.05;;;16.80;47.20;;;;;;5013751;28;20311;-68
2022/12/07 07:11:44;;;;;;;2.25;2.10;;;16.80;47.10;;;;;;5018840;28;20204;-68
2022/12/07 07:14:12;;;;;;;2.42;2.20;;;16.70;46.90;;;;;;5018294;28;20652;-68
2022/12/07 07:16:40;;;;;;;2.38;2.17;;;16.80;46.90;;;;;;5016473;28;20211;-68
2022/12/07 07:19:08;;;;;;;2.33;2.17;;;16.80;46.90;;;;;;5016128;28;20228;-68
2022/12/07 07:21:35;;;;;;;2.53;2.30;;;16.80;47.00;;;;;;5016254;28;20708;-68
2022/12/07 07:24:02;;;;;;;2.10;2.00;;;16.80;47.00;;;;;;5000149;28;20648;-69
2022/12/07 07:26:30;;;;;;;2.38;2.17;;;16.80;47.00;;;;;;5016556;28;20197;-69
2022/12/07 07:28:56;;;;;;;2.50;2.30;;;16.80;47.20;;;;;;5016072;28;20216;-69
2022/12/07 07:31:23;;;;;;;2.60;2.40;;;16.80;47.00;;;;;;5000056;28;20222;-69
2022/12/07 07:33:52;;;;;;;2.50;2.30;;;16.80;47.00;;;;;;5015977;28;20193;-68
2022/12/07 07:36:19;;;;;;;2.53;2.33;;;16.80;46.90;;;;;;5015781;28;20197;-68
2022/12/07 07:38:48;;;;;;;2.90;2.22;;;16.80;46.90;;;;;;5016225;28;20579;-68
2022/12/07 07:41:15;;;;;;;2.58;2.38;;;16.80;47.00;;;;;;5016859;28;20188;-68
2022/12/07 07:43:42;;;;;;;3.25;2.40;;;16.80;47.00;;;;;;5015455;28;20193;-68
2022/12/07 07:46:10;;;;;;;2.45;2.28;;;16.80;47.10;;;;;;5015589;28;20263;-68
2022/12/07 07:48:37;;;;;;;2.33;2.13;;;16.80;47.00;;;;;;5015263;28;20217;-68
2022/12/07 07:51:08;;;;;;;2.40;2.20;;;16.80;47.00;;;;;;5016998;28;20631;-68
2022/12/07 07:53:35;;;;;;;2.50;2.30;;;16.80;47.00;;;;;;5015439;28;20231;-68
2022/12/07 07:56:02;;;;;;;3.13;2.33;;;16.80;46.90;;;;;;5016559;28;20247;-68
2022/12/07 07:58:30;;;;;;;2.78;2.58;;;16.80;46.90;;;;;;5015215;28;20216;-68
2022/12/07 08:00:57;;;;;;;3.15;2.50;;;16.80;47.00;;;;;;5014708;28;20224;-68
2022/12/07 08:03:25;;;;;;;2.88;2.65;;;16.80;47.00;;;;;;5015053;28;20204;-68
2022/12/07 08:05:51;;;;;;;2.97;2.60;;;16.80;46.90;;;;;;5014825;28;20204;-69
2022/12/07 08:08:21;;;;;;;2.55;2.35;;;16.80;46.80;;;;;;5015142;28;20189;-68
2022/12/07 08:10:47;;;;;;;2.38;2.17;;;16.80;46.80;;;;;;5015145;28;20197;-68
2022/12/07 08:13:16;;;;;;;2.50;2.30;;;16.90;46.80;;;;;;5016514;28;20279;-68
2022/12/07 08:15:45;;;;;;;2.90;2.70;;;16.90;46.70;;;;;;5015094;28;20228;-68
2022/12/07 08:18:14;;;;;;;2.83;2.53;;;16.90;46.60;;;;;;5014965;28;20259;-69
2022/12/07 08:20:41;;;;;;;2.70;2.45;;;16.90;46.60;;;;;;5015163;28;20216;-69
2022/12/07 08:23:10;;;;;;;2.75;2.50;;;17.00;46.40;;;;;;5015046;28;20200;-69
2022/12/07 08:25:38;;;;;;;2.55;2.35;;;17.10;46.50;;;;;;5011541;28;20582;-69
2022/12/07 08:28:06;;;;;;;2.78;2.50;;;17.10;46.20;;;;;;5013968;28;20196;-69
2022/12/07 08:30:33;;;;;;;3.97;2.45;;;17.10;46.30;;;;;;5014686;28;20216;-69
2022/12/07 08:33:00;;;;;;;2.67;2.47;;;17.10;46.30;;;;;;5014758;28;20205;-69
2022/12/07 08:35:27;;;;;;;2.72;2.53;;;17.20;46.60;;;;;;5016033;28;20279;-68
2022/12/07 08:37:57;;;;;;;2.47;2.28;;;17.20;46.20;;;;;;5015055;28;20215;-68
2022/12/07 08:40:25;;;;;;;2.50;2.30;;;17.20;46.20;;;;;;5013309;28;20319;-69
2022/12/07 08:42:54;;;;;;;2.40;2.20;;;17.30;46.40;;;;;;5013411;28;20291;-69
2022/12/07 08:45:22;;;;;;;3.28;2.75;;;17.30;46.60;;;;;;5013626;28;20292;-69
2022/12/07 08:47:50;;;;;;;3.95;2.80;;;17.30;46.20;;;;;;5013603;28;20209;-69
2022/12/07 08:50:18;;;;;;;3.10;2.80;;;17.30;46.30;;;;;;5013438;28;20221;-69
2022/12/07 08:52:45;;;;;;;3.15;2.85;;;17.30;45.80;;;;;;5013541;28;20201;-69
2022/12/07 08:55:12;;;;;;;3.08;2.78;;;17.40;46.20;;;;;;5014622;28;20287;-69
2022/12/07 08:57:39;;;;;;;4.57;2.78;;;17.40;46.60;;;;;;5016820;28;20201;-70
2022/12/07 09:00:10;;;;;;;5.15;2.50;;;17.50;47.60;;;;;;5015372;28;20596;-70
2022/12/07 09:02:36;;;;;;;3.15;2.80;;;17.50;47.80;;;;;;5015544;28;20652;-70
2022/12/07 09:05:04;;;;;;;4.30;2.42;;;17.60;48.00;;;;;;5016299;28;20213;-70
2022/12/07 09:07:31;;;;;;;3.05;2.85;;;17.60;48.30;;;;;;5015192;28;20199;-70
2022/12/07 09:09:58;;;;;;;6.15;2.80;;;17.60;48.30;;;;;;5014804;28;20217;-69
2022/12/07 09:12:25;;;;;;;3.25;2.75;;;17.70;48.20;;;;;;5015920;28;20597;-70
2022/12/07 09:14:52;;;;;;;3.20;2.90;;;17.80;48.40;;;;;;5015837;28;20200;-70
2022/12/07 09:17:20;;;;;;;3.47;2.80;;;17.90;48.50;;;;;;5014578;28;20648;-70
2022/12/07 09:19:47;;;;;;;2.80;2.60;;;17.90;48.40;;;;;;5014087;28;20229;-70
2022/12/07 09:22:14;;;;;;;5.30;2.47;;;18.00;48.20;;;;;;5014615;28;20204;-70
2022/12/07 09:24:41;;;;;;;3.83;2.60;;;18.00;48.30;;;;;;5014260;28;20738;-70
2022/12/07 09:27:08;;;;;;;3.42;2.67;;;18.10;48.20;;;;;;5014900;28;20610;-70
2022/12/07 09:29:35;;;;;;;3.22;2.78;;;18.10;48.20;;;;;;5014900;28;20227;-70
2022/12/07 09:32:02;;;;;;;3.75;2.97;;;18.20;48.40;;;;;;5014990;28;20197;-70
2022/12/07 09:34:32;;;;;;;3.00;2.75;;;18.20;48.50;;;;;;5015510;28;20637;-70
2022/12/07 09:37:02;;;;;;;2.67;2.47;;;18.30;48.10;;;;;;5014374;28;20228;-70
2022/12/07 09:39:29;;;;;;;3.60;2.50;;;18.30;48.30;;;;;;5015588;28;20699;-70
2022/12/07 09:41:57;;;;;;;2.78;2.58;;;18.30;48.30;;;;;;5014423;28;20212;-69
2022/12/07 09:44:25;;;;;;;2.80;2.60;;;18.40;48.40;;;;;;5014257;28;20197;-69
2022/12/07 09:46:52;;;;;;;9.27;2.80;;;18.40;48.40;;;;;;5014305;28;20240;-69
2022/12/07 09:49:21;;;;;;;4.13;2.50;;;18.50;48.40;;;;;;5014508;28;20216;-69
2022/12/07 09:51:49;;;;;;;3.58;2.72;;;18.50;48.40;;;;;;5016449;28;20539;-69
2022/12/07 09:54:17;;;;;;;2.60;2.38;;;18.50;48.20;;;;;;5013521;28;20196;-70
2022/12/07 09:56:44;;;;;;;2.95;2.65;;;18.60;48.10;;;;;;5014618;28;20303;-69
2022/12/07 09:59:18;;;;;;;5.22;2.70;;;18.60;47.20;;;;;;5014703;28;20627;-69
2022/12/07 10:01:46;;;;;;;2.58;2.38;;;18.60;46.50;;;;;;5015396;28;20564;-70
2022/12/07 10:04:14;;;;;;;3.50;2.92;;;18.70;46.30;;;;;;5014983;28;20737;-69
2022/12/07 10:06:42;;;;;;;2.60;2.40;;;18.70;46.30;;;;;;5013782;28;20593;-69
2022/12/07 10:09:12;;;;;;;3.33;2.60;;;18.70;46.50;;;;;;5013625;28;20213;-69
2022/12/07 10:12:02;;;;;;;4.90;2.83;;;18.80;46.80;;;;;;5013528;28;20197;-69
2022/12/07 10:14:30;;;;;;;3.25;2.50;;;18.80;47.10;;;;;;5013408;28;20203;-69
2022/12/07 10:16:57;;;;;;;2.38;2.20;;;18.80;47.10;;;;;;5013287;28;20197;-70
2022/12/07 10:19:26;;;;;;;2.47;2.22;;;18.80;47.00;;;;;;5012975;28;20601;-69
2022/12/07 10:22:05;;;;;;;3.88;2.50;;;18.80;47.50;;;;;;5013290;28;20208;-69
2022/12/07 10:24:33;;;;;;;3.05;2.22;;;18.90;47.60;;;;;;5013216;28;20200;-69
2022/12/07 10:27:00;;;;;;;3.08;2.17;;;18.90;47.70;;;;;;5013152;28;20196;-69
2022/12/07 10:29:30;;;;;;;478.02;251.88;;;18.90;47.50;;;;;;5013331;28;20212;-69
2022/12/07 10:31:58;;;;;;;32.83;19.55;;;18.90;46.40;;;;;;5012876;28;20201;-69
2022/12/07 10:34:26;;;;;;;26.58;15.73;;;18.90;46.20;;;;;;5014236;28;20706;-70
2022/12/07 10:36:54;;;;;;;23.58;13.93;;;18.90;45.80;;;;;;5013038;28;20268;-69
2022/12/07 10:39:22;;;;;;;17.83;10.48;;;18.90;45.90;;;;;;5014109;28;20216;-69
2022/12/07 10:41:57;;;;;;;15.15;10.05;;;18.80;45.80;;;;;;5012986;28;20206;-69
2022/12/07 10:44:25;;;;;;;16.63;8.85;;;18.90;45.40;;;;;;5012622;28;20205;-69
2022/12/07 10:47:01;;;;;;;15.38;9.02;;;18.80;45.50;;;;;;5013816;28;20193;-69
2022/12/07 10:50:11;;;;;;;10.85;8.00;;;18.80;45.20;;;;;;5012299;28;20212;-69
2022/12/07 10:53:06;;;;;;;12.90;8.00;;;18.80;45.00;;;;;;5012241;28;20189;-69
2022/12/07 10:55:39;;;;;;;13.75;7.80;;;18.80;44.80;;;;;;5010831;28;20613;-69
2022/12/07 10:58:21;;;;;;;11.75;7.63;;;18.80;44.90;;;;;;5012462;28;20204;-69
2022/12/07 11:00:52;;;;;;;11.25;7.20;;;18.80;45.00;;;;;;5012413;28;20192;-70
2022/12/07 11:03:32;;;;;;;10.50;6.82;;;18.80;44.80;;;;;;5012430;28;20193;-69
2022/12/07 11:06:04;;;;;;;9.52;6.40;;;18.70;44.80;;;;;;5013883;28;20191;-69
2022/12/07 11:08:41;;;;;;;10.65;6.88;;;18.70;44.80;;;;;;5012674;28;20574;-69
2022/12/07 11:11:10;;;;;;;9.60;5.95;;;18.70;44.80;;;;;;5012676;28;20200;-69
2022/12/07 11:13:42;;;;;;;9.25;5.82;;;18.70;44.80;;;;;;5012160;28;20286;-69
2022/12/07 11:16:20;;;;;;;8.25;5.82;;;18.70;44.80;;;;;;5012334;28;20181;-69
2022/12/07 11:18:53;;;;;;;9.93;5.88;;;18.70;44.80;;;;;;5013418;28;20302;-69
2022/12/07 11:21:24;;;;;;;9.88;6.80;;;18.60;44.70;;;;;;5013099;28;20228;-69
2022/12/07 11:23:56;;;;;;;9.52;6.45;;;18.60;44.70;;;;;;5013216;28;20231;-69
2022/12/07 11:26:32;;;;;;;8.07;5.93;;;18.60;44.70;;;;;;5012523;28;20599;-69
2022/12/07 11:29:19;;;;;;;8.15;5.85;;;18.60;45.20;;;;;;5012176;28;20678;-69
2022/12/07 11:31:53;;;;;;;6.25;5.05;;;18.60;44.80;;;;;;5013828;28;20205;-69
2022/12/07 11:34:23;;;;;;;8.00;5.75;;;18.60;44.80;;;;;;5012258;28;20192;-69
2022/12/07 11:36:52;;;;;;;8.07;5.05;;;18.60;44.80;;;;;;5013725;28;20205;-70
2022/12/07 11:39:24;;;;;;;6.45;4.80;;;18.60;45.00;;;;;;5013980;28;20244;-69
2022/12/07 11:41:53;;;;;;;6.65;5.20;;;18.60;45.00;;;;;;5015581;28;20663;-69
2022/12/07 11:44:27;;;;;;;6.85;4.78;;;18.60;45.00;;;;;;5017316;28;20205;-70
2022/12/07 11:46:56;;;;;;;9.20;5.28;;;18.50;45.00;;;;;;5017799;28;20568;-69
2022/12/07 11:49:27;;;;;;;6.97;4.47;;;18.50;44.90;;;;;;5017902;28;20212;-68
2022/12/07 11:51:56;;;;;;;7.70;5.07;;;18.50;45.00;;;;;;5016320;28;20200;-69
2022/12/07 11:54:26;;;;;;;7.68;5.07;;;18.50;45.00;;;;;;5015820;28;20196;-69
2022/12/07 11:56:53;;;;;;;8.88;5.03;;;18.50;45.00;;;;;;5015719;28;20236;-69
2022/12/07 11:59:24;;;;;;;6.78;4.75;;;18.50;45.00;;;;;;5015400;28;20232;-69
2022/12/07 12:01:54;;;;;;;6.10;4.38;;;18.50;45.00;;;;;;5015521;28;20251;-69
2022/12/07 12:04:34;;;;;;;7.22;4.82;;;18.50;45.00;;;;;;5015430;28;20204;-69
2022/12/07 12:07:00;;;;;;;6.15;4.60;;;18.50;44.60;;;;;;5015344;28;20196;-68
2022/12/07 12:09:30;;;;;;;7.35;4.22;;;18.50;45.10;;;;;;5015296;28;20248;-69
2022/12/07 12:12:11;;;;;;;6.32;4.38;;;18.40;45.60;;;;;;5015518;28;20208;-69
2022/12/07 12:15:00;;;;;;;5.53;4.05;;;18.30;46.10;;;;;;5015592;28;20205;-68
2022/12/07 12:17:51;;;;;;;6.88;4.32;;;18.30;46.40;;;;;;5015496;28;20204;-69
2022/12/07 12:20:22;;;;;;;5.50;4.20;;;18.30;45.60;;;;;;5015645;28;20221;-69
2022/12/07 12:22:51;;;;;;;5.15;3.58;;;18.30;45.90;;;;;;5016040;28;20227;-70
2022/12/07 12:25:21;;;;;;;7.85;4.18;;;18.30;46.20;;;;;;5015379;28;20631;-70
2022/12/07 12:27:48;;;;;;;5.63;3.88;;;18.30;46.60;;;;;;5015430;28;20279;-70
2022/12/07 12:30:30;;;;;;;7.15;4.30;;;18.30;45.70;;;;;;5015815;28;20213;-69
2022/12/07 12:33:02;;;;;;;8.63;3.97;;;18.30;45.60;;;;;;5015215;28;20683;-69
2022/12/07 12:35:31;;;;;;;7.72;4.07;;;18.40;46.00;;;;;;5014789;28;20203;-69
2022/12/07 12:38:33;;;;;;;4.93;3.55;;;18.40;46.00;;;;;;5014472;28;20568;-69
2022/12/07 12:41:01;;;;;;;5.70;4.03;;;18.30;46.10;;;;;;5014368;28;20263;-69
2022/12/07 12:43:58;;;;;;;6.22;4.13;;;18.30;46.10;;;;;;5014423;28;20207;-69
2022/12/07 12:47:01;;;;;;;4.88;3.80;;;18.30;45.90;;;;;;5014487;28;20288;-69
2022/12/07 12:49:39;;;;;;;5.63;3.97;;;18.30;45.90;;;;;;5009303;28;20227;-69
2022/12/07 12:52:50;;;;;;;6.57;4.00;;;18.30;45.90;;;;;;5013516;28;20367;-70
2022/12/07 12:55:20;;;;;;;6.60;3.90;;;18.30;45.80;;;;;;4999352;28;20200;-69
2022/12/07 12:57:48;;;;;;;5.93;3.60;;;18.30;45.70;;;;;;5014532;28;20196;-69